Abraham Lincoln Capital Airport
KSPI : rendu visible

Aérodrome :











RETROUVEZ-NOUS SUR...

 
LOGIN :

S'inscrire | Disclaimer

   EN    FR    IT 

 









Légende :    VFR   VFR Marginal   IFR   IFR Intensif   IFR Très Intensif
Visi : 
Plafond : 
>= 8 km
>= 3000ft
5 à 8 km
1000 à 3000 ft
1500m à 5 km
500 à 1000 ft
800 à 1500m
200 à 500 ft
< 800m
< 200 ft
Symboles :   Orages  Brouillard  Fortes neiges  Fortes précipitations  Vent > 20 kt






- Altitude de l'aérodrome : 598 ft
- Code IATA : SPI


KSPI - Abraham Lincoln Capital

DERNIER METAR :
  • 281252Z 00000KT 10SM BKN110 22/19 A2989 RMK AO2 SLP117 T02170189

METARs EXPIRÉS :
  • 281152Z AUTO 20005KT 10SM OVC110 20/19 A2988 RMK AO2 RAB36E49 SLP114 P0000 60000 T02000194 10206 20200 53005
  • 281052Z AUTO 18008KT 10SM SCT007 20/19 A2987 RMK AO2 SLP112 T02000194
  • 281028Z AUTO 16010KT 10SM FEW008 20/19 A2987 RMK AO2 T02000194

TAF KSPI
Valide du 28 à 13h jusqu'au 29 à 12h UTC


281251Z 2813/2912 20007KT P6SM VCSH SCT025 BKN060
FM282000 24010KT P6SM VCTS BKN040CB
FM282300 28007KT 6SM -SHRA VCTS OVC030CB
FM290200 32007KT P6SM VCSH OVC025
FM290800 32008KT P6SM BKN020
FIR KZKC / Amérique du Nord



MET'MAP, la Météo Aéronautique d'un coup d'oeil ! - Copyright ORBIFLY Décembre 2007 - Disclaimer

ORBIFLY MET'MAP TEAM :

Programmation & Développement : Alexandra Zaïnal
Sur une idée originale de : Baudouin d'Aumeries
Assistance à la programmation : Marc-Olivier Méhu
Soutien technique & logistique : Manuel Goepfert

Contact : metmap@orbifly.com




SOURCES & CREDITS :

   NOAA       Earth
Advisory